sensor_id;sensor_type;location;lat;lon;timestamp;P1;durP1;ratioP1;P2;durP2;ratioP2
79130;SDS011;70394;45.194;9.142;2023-07-29T00:00:41;6.40;;;3.78;;
79130;SDS011;70394;45.194;9.142;2023-07-29T00:03:07;7.30;;;3.97;;
79130;SDS011;70394;45.194;9.142;2023-07-29T00:05:33;4.72;;;3.53;;
79130;SDS011;70394;45.194;9.142;2023-07-29T00:07:58;5.38;;;3.83;;
79130;SDS011;70394;45.194;9.142;2023-07-29T00:10:23;6.30;;;3.55;;
79130;SDS011;70394;45.194;9.142;2023-07-29T00:12:49;6.38;;;3.67;;
79130;SDS011;70394;45.194;9.142;2023-07-29T00:15:14;6.43;;;3.70;;
79130;SDS011;70394;45.194;9.142;2023-07-29T00:17:39;5.63;;;3.42;;
79130;SDS011;70394;45.194;9.142;2023-07-29T00:20:05;6.55;;;3.65;;
79130;SDS011;70394;45.194;9.142;2023-07-29T00:22:31;6.47;;;3.67;;
79130;SDS011;70394;45.194;9.142;2023-07-29T00:24:57;5.75;;;3.60;;
79130;SDS011;70394;45.194;9.142;2023-07-29T00:27:24;6.43;;;3.90;;
79130;SDS011;70394;45.194;9.142;2023-07-29T00:29:49;6.55;;;4.22;;
79130;SDS011;70394;45.194;9.142;2023-07-29T00:32:15;5.22;;;3.53;;
79130;SDS011;70394;45.194;9.142;2023-07-29T00:34:40;5.88;;;3.88;;
79130;SDS011;70394;45.194;9.142;2023-07-29T00:37:05;5.97;;;3.40;;
79130;SDS011;70394;45.194;9.142;2023-07-29T00:39:34;7.53;;;3.50;;
79130;SDS011;70394;45.194;9.142;2023-07-29T00:41:59;5.22;;;3.45;;
79130;SDS011;70394;45.194;9.142;2023-07-29T00:44:25;4.63;;;3.63;;
79130;SDS011;70394;45.194;9.142;2023-07-29T00:46:53;5.40;;;3.70;;
79130;SDS011;70394;45.194;9.142;2023-07-29T00:49:19;5.93;;;3.55;;
79130;SDS011;70394;45.194;9.142;2023-07-29T00:51:45;8.13;;;4.22;;
79130;SDS011;70394;45.194;9.142;2023-07-29T00:54:11;7.00;;;3.58;;
79130;SDS011;70394;45.194;9.142;2023-07-29T00:56:37;6.07;;;3.92;;
79130;SDS011;70394;45.194;9.142;2023-07-29T00:59:03;5.80;;;3.63;;
79130;SDS011;70394;45.194;9.142;2023-07-29T01:01:29;6.88;;;4.05;;
79130;SDS011;70394;45.194;9.142;2023-07-29T01:03:54;6.30;;;3.60;;
79130;SDS011;70394;45.194;9.142;2023-07-29T01:06:23;8.05;;;4.35;;
79130;SDS011;70394;45.194;9.142;2023-07-29T01:08:55;5.53;;;3.65;;
79130;SDS011;70394;45.194;9.142;2023-07-29T01:14:12;6.30;;;4.15;;
79130;SDS011;70394;45.194;9.142;2023-07-29T01:16:45;5.35;;;3.70;;
79130;SDS011;70394;45.194;9.142;2023-07-29T01:22:31;6.82;;;3.72;;
79130;SDS011;70394;45.194;9.142;2023-07-29T01:24:57;6.28;;;3.88;;
79130;SDS011;70394;45.194;9.142;2023-07-29T01:27:23;6.93;;;3.83;;
79130;SDS011;70394;45.194;9.142;2023-07-29T01:29:49;6.93;;;3.95;;
79130;SDS011;70394;45.194;9.142;2023-07-29T01:32:18;7.18;;;3.83;;
79130;SDS011;70394;45.194;9.142;2023-07-29T01:34:48;6.28;;;3.50;;
79130;SDS011;70394;45.194;9.142;2023-07-29T01:38:04;6.82;;;3.83;;
79130;SDS011;70394;45.194;9.142;2023-07-29T01:40:32;5.20;;;3.70;;
79130;SDS011;70394;45.194;9.142;2023-07-29T01:42:58;6.20;;;3.55;;
79130;SDS011;70394;45.194;9.142;2023-07-29T01:45:24;6.75;;;3.30;;
79130;SDS011;70394;45.194;9.142;2023-07-29T01:47:50;5.88;;;3.35;;
79130;SDS011;70394;45.194;9.142;2023-07-29T01:50:16;5.45;;;3.40;;
79130;SDS011;70394;45.194;9.142;2023-07-29T01:52:41;5.57;;;3.25;;
79130;SDS011;70394;45.194;9.142;2023-07-29T01:55:07;5.97;;;3.42;;
79130;SDS011;70394;45.194;9.142;2023-07-29T01:57:32;4.85;;;3.60;;
79130;SDS011;70394;45.194;9.142;2023-07-29T01:59:58;6.78;;;3.78;;
79130;SDS011;70394;45.194;9.142;2023-07-29T02:02:24;4.40;;;3.00;;
79130;SDS011;70394;45.194;9.142;2023-07-29T02:04:49;5.95;;;3.45;;
79130;SDS011;70394;45.194;9.142;2023-07-29T02:07:16;5.10;;;3.22;;
79130;SDS011;70394;45.194;9.142;2023-07-29T02:09:43;6.97;;;3.25;;
79130;SDS011;70394;45.194;9.142;2023-07-29T02:12:08;5.20;;;3.40;;
79130;SDS011;70394;45.194;9.142;2023-07-29T02:14:34;5.22;;;3.25;;
79130;SDS011;70394;45.194;9.142;2023-07-29T02:16:59;5.47;;;3.35;;
79130;SDS011;70394;45.194;9.142;2023-07-29T02:19:24;5.03;;;3.10;;
79130;SDS011;70394;45.194;9.142;2023-07-29T02:21:50;4.32;;;2.88;;
79130;SDS011;70394;45.194;9.142;2023-07-29T02:24:15;6.40;;;3.55;;
79130;SDS011;70394;45.194;9.142;2023-07-29T02:26:41;6.15;;;3.40;;
79130;SDS011;70394;45.194;9.142;2023-07-29T02:29:06;5.68;;;3.20;;
79130;SDS011;70394;45.194;9.142;2023-07-29T02:31:32;5.75;;;3.70;;
79130;SDS011;70394;45.194;9.142;2023-07-29T02:33:59;5.22;;;3.10;;
79130;SDS011;70394;45.194;9.142;2023-07-29T02:36:24;5.40;;;3.10;;
79130;SDS011;70394;45.194;9.142;2023-07-29T02:38:50;5.10;;;3.03;;
79130;SDS011;70394;45.194;9.142;2023-07-29T02:41:15;5.70;;;3.63;;
79130;SDS011;70394;45.194;9.142;2023-07-29T02:43:41;5.97;;;3.17;;
79130;SDS011;70394;45.194;9.142;2023-07-29T02:46:08;4.82;;;3.00;;
79130;SDS011;70394;45.194;9.142;2023-07-29T02:48:33;5.57;;;3.53;;
79130;SDS011;70394;45.194;9.142;2023-07-29T02:50:59;5.22;;;3.45;;
79130;SDS011;70394;45.194;9.142;2023-07-29T02:53:24;6.10;;;3.47;;
79130;SDS011;70394;45.194;9.142;2023-07-29T02:55:50;4.70;;;3.22;;
79130;SDS011;70394;45.194;9.142;2023-07-29T02:58:15;4.88;;;2.90;;
79130;SDS011;70394;45.194;9.142;2023-07-29T03:00:41;5.22;;;3.33;;
79130;SDS011;70394;45.194;9.142;2023-07-29T03:03:09;4.68;;;3.00;;
79130;SDS011;70394;45.194;9.142;2023-07-29T03:05:34;6.43;;;3.17;;
79130;SDS011;70394;45.194;9.142;2023-07-29T03:08:00;4.93;;;2.92;;
79130;SDS011;70394;45.194;9.142;2023-07-29T03:10:25;5.28;;;3.05;;
79130;SDS011;70394;45.194;9.142;2023-07-29T03:12:53;6.25;;;3.42;;
79130;SDS011;70394;45.194;9.142;2023-07-29T03:15:19;7.00;;;3.55;;
79130;SDS011;70394;45.194;9.142;2023-07-29T03:17:47;4.63;;;3.17;;
79130;SDS011;70394;45.194;9.142;2023-07-29T03:20:13;4.95;;;3.13;;
79130;SDS011;70394;45.194;9.142;2023-07-29T03:22:38;5.47;;;2.88;;
79130;SDS011;70394;45.194;9.142;2023-07-29T03:25:04;4.93;;;3.58;;
79130;SDS011;70394;45.194;9.142;2023-07-29T03:27:30;7.57;;;3.53;;
79130;SDS011;70394;45.194;9.142;2023-07-29T03:29:56;6.45;;;3.45;;
79130;SDS011;70394;45.194;9.142;2023-07-29T03:32:21;6.47;;;3.60;;
79130;SDS011;70394;45.194;9.142;2023-07-29T03:34:46;6.50;;;3.50;;
79130;SDS011;70394;45.194;9.142;2023-07-29T03:37:12;5.55;;;3.50;;
79130;SDS011;70394;45.194;9.142;2023-07-29T03:39:37;5.35;;;3.20;;
79130;SDS011;70394;45.194;9.142;2023-07-29T03:42:02;5.60;;;3.17;;
79130;SDS011;70394;45.194;9.142;2023-07-29T03:44:28;5.63;;;3.33;;
79130;SDS011;70394;45.194;9.142;2023-07-29T03:46:54;4.50;;;3.33;;
79130;SDS011;70394;45.194;9.142;2023-07-29T03:49:19;7.50;;;3.80;;
79130;SDS011;70394;45.194;9.142;2023-07-29T03:51:44;5.57;;;3.50;;
79130;SDS011;70394;45.194;9.142;2023-07-29T03:54:10;5.28;;;3.30;;
79130;SDS011;70394;45.194;9.142;2023-07-29T03:56:35;5.40;;;3.70;;
79130;SDS011;70394;45.194;9.142;2023-07-29T03:59:07;5.00;;;2.97;;
79130;SDS011;70394;45.194;9.142;2023-07-29T04:01:32;5.85;;;3.50;;
79130;SDS011;70394;45.194;9.142;2023-07-29T04:03:58;6.63;;;3.75;;
79130;SDS011;70394;45.194;9.142;2023-07-29T04:06:23;6.57;;;3.30;;
79130;SDS011;70394;45.194;9.142;2023-07-29T04:08:49;5.75;;;3.42;;
79130;SDS011;70394;45.194;9.142;2023-07-29T04:11:14;4.80;;;3.25;;
79130;SDS011;70394;45.194;9.142;2023-07-29T04:13:40;5.68;;;3.78;;
79130;SDS011;70394;45.194;9.142;2023-07-29T04:16:06;5.53;;;3.50;;
79130;SDS011;70394;45.194;9.142;2023-07-29T04:18:31;6.80;;;3.78;;
79130;SDS011;70394;45.194;9.142;2023-07-29T04:20:57;6.00;;;3.72;;
79130;SDS011;70394;45.194;9.142;2023-07-29T04:23:22;7.05;;;3.70;;
79130;SDS011;70394;45.194;9.142;2023-07-29T04:25:47;6.80;;;3.63;;
79130;SDS011;70394;45.194;9.142;2023-07-29T04:28:13;5.93;;;3.58;;
79130;SDS011;70394;45.194;9.142;2023-07-29T04:30:38;7.20;;;4.15;;
79130;SDS011;70394;45.194;9.142;2023-07-29T04:33:04;8.07;;;3.95;;
79130;SDS011;70394;45.194;9.142;2023-07-29T04:35:29;7.07;;;3.95;;
79130;SDS011;70394;45.194;9.142;2023-07-29T04:37:54;6.35;;;3.83;;
79130;SDS011;70394;45.194;9.142;2023-07-29T04:40:20;6.95;;;3.85;;
79130;SDS011;70394;45.194;9.142;2023-07-29T04:42:45;5.45;;;3.47;;
79130;SDS011;70394;45.194;9.142;2023-07-29T04:45:10;7.10;;;3.83;;
79130;SDS011;70394;45.194;9.142;2023-07-29T04:47:36;5.82;;;3.78;;
79130;SDS011;70394;45.194;9.142;2023-07-29T04:50:01;6.40;;;3.63;;
79130;SDS011;70394;45.194;9.142;2023-07-29T04:52:27;6.55;;;3.88;;
79130;SDS011;70394;45.194;9.142;2023-07-29T04:54:52;5.18;;;3.60;;
79130;SDS011;70394;45.194;9.142;2023-07-29T04:57:17;5.00;;;3.75;;
79130;SDS011;70394;45.194;9.142;2023-07-29T04:59:43;5.75;;;3.80;;
79130;SDS011;70394;45.194;9.142;2023-07-29T05:02:08;7.15;;;4.45;;
79130;SDS011;70394;45.194;9.142;2023-07-29T05:04:33;6.47;;;3.70;;
79130;SDS011;70394;45.194;9.142;2023-07-29T05:06:59;5.22;;;4.07;;
79130;SDS011;70394;45.194;9.142;2023-07-29T05:09:24;7.35;;;3.97;;
79130;SDS011;70394;45.194;9.142;2023-07-29T05:11:50;6.40;;;3.90;;
79130;SDS011;70394;45.194;9.142;2023-07-29T05:14:16;6.40;;;3.83;;
79130;SDS011;70394;45.194;9.142;2023-07-29T05:16:43;5.95;;;3.95;;
79130;SDS011;70394;45.194;9.142;2023-07-29T05:19:09;5.78;;;3.42;;
79130;SDS011;70394;45.194;9.142;2023-07-29T05:21:34;7.18;;;4.03;;
79130;SDS011;70394;45.194;9.142;2023-07-29T05:24:00;6.93;;;4.45;;
79130;SDS011;70394;45.194;9.142;2023-07-29T05:26:25;5.70;;;4.05;;
79130;SDS011;70394;45.194;9.142;2023-07-29T05:28:51;5.55;;;3.80;;
79130;SDS011;70394;45.194;9.142;2023-07-29T05:31:16;5.63;;;3.50;;
79130;SDS011;70394;45.194;9.142;2023-07-29T05:33:42;6.40;;;3.55;;
79130;SDS011;70394;45.194;9.142;2023-07-29T05:36:08;5.50;;;3.90;;
79130;SDS011;70394;45.194;9.142;2023-07-29T05:38:33;5.65;;;3.58;;
79130;SDS011;70394;45.194;9.142;2023-07-29T05:40:59;6.47;;;3.97;;
79130;SDS011;70394;45.194;9.142;2023-07-29T05:43:25;7.95;;;4.95;;
79130;SDS011;70394;45.194;9.142;2023-07-29T05:45:51;11.35;;;5.22;;
79130;SDS011;70394;45.194;9.142;2023-07-29T05:48:17;8.65;;;4.90;;
79130;SDS011;70394;45.194;9.142;2023-07-29T05:50:42;7.95;;;5.22;;
79130;SDS011;70394;45.194;9.142;2023-07-29T05:53:08;9.00;;;4.65;;
79130;SDS011;70394;45.194;9.142;2023-07-29T05:55:34;10.38;;;4.85;;
79130;SDS011;70394;45.194;9.142;2023-07-29T05:57:59;9.07;;;5.20;;
79130;SDS011;70394;45.194;9.142;2023-07-29T06:00:25;6.15;;;4.30;;
79130;SDS011;70394;45.194;9.142;2023-07-29T06:02:50;7.22;;;4.25;;
79130;SDS011;70394;45.194;9.142;2023-07-29T06:05:15;6.43;;;4.60;;
79130;SDS011;70394;45.194;9.142;2023-07-29T06:07:41;7.15;;;4.13;;
79130;SDS011;70394;45.194;9.142;2023-07-29T06:10:10;8.15;;;4.57;;
79130;SDS011;70394;45.194;9.142;2023-07-29T06:12:38;7.38;;;4.40;;
79130;SDS011;70394;45.194;9.142;2023-07-29T06:15:04;6.53;;;4.38;;
79130;SDS011;70394;45.194;9.142;2023-07-29T06:17:30;7.07;;;4.40;;
79130;SDS011;70394;45.194;9.142;2023-07-29T06:19:55;7.70;;;4.07;;
79130;SDS011;70394;45.194;9.142;2023-07-29T06:22:20;7.07;;;3.97;;
79130;SDS011;70394;45.194;9.142;2023-07-29T06:24:46;7.05;;;3.97;;
79130;SDS011;70394;45.194;9.142;2023-07-29T06:27:11;7.43;;;4.20;;
79130;SDS011;70394;45.194;9.142;2023-07-29T06:29:37;6.20;;;4.00;;
79130;SDS011;70394;45.194;9.142;2023-07-29T06:32:02;19.42;;;5.32;;
79130;SDS011;70394;45.194;9.142;2023-07-29T06:34:28;6.75;;;4.18;;
79130;SDS011;70394;45.194;9.142;2023-07-29T06:36:53;5.65;;;3.88;;
79130;SDS011;70394;45.194;9.142;2023-07-29T06:39:19;7.68;;;4.50;;
79130;SDS011;70394;45.194;9.142;2023-07-29T06:41:44;6.70;;;4.32;;
79130;SDS011;70394;45.194;9.142;2023-07-29T06:44:09;7.43;;;4.15;;
79130;SDS011;70394;45.194;9.142;2023-07-29T06:46:34;8.77;;;5.13;;
79130;SDS011;70394;45.194;9.142;2023-07-29T06:49:00;8.90;;;3.90;;
79130;SDS011;70394;45.194;9.142;2023-07-29T06:51:25;22.95;;;5.43;;
79130;SDS011;70394;45.194;9.142;2023-07-29T06:53:51;9.05;;;4.25;;
79130;SDS011;70394;45.194;9.142;2023-07-29T06:56:16;8.80;;;4.78;;
79130;SDS011;70394;45.194;9.142;2023-07-29T06:58:41;9.00;;;4.40;;
79130;SDS011;70394;45.194;9.142;2023-07-29T07:01:07;6.50;;;4.00;;
79130;SDS011;70394;45.194;9.142;2023-07-29T07:03:32;8.38;;;4.30;;
79130;SDS011;70394;45.194;9.142;2023-07-29T07:05:58;6.88;;;4.00;;
79130;SDS011;70394;45.194;9.142;2023-07-29T07:08:23;6.95;;;4.35;;
79130;SDS011;70394;45.194;9.142;2023-07-29T07:10:49;5.85;;;4.35;;
79130;SDS011;70394;45.194;9.142;2023-07-29T07:13:14;6.30;;;4.00;;
79130;SDS011;70394;45.194;9.142;2023-07-29T07:15:40;8.15;;;3.70;;
79130;SDS011;70394;45.194;9.142;2023-07-29T07:18:05;7.28;;;4.40;;
79130;SDS011;70394;45.194;9.142;2023-07-29T07:20:30;7.57;;;4.13;;
79130;SDS011;70394;45.194;9.142;2023-07-29T07:22:56;7.85;;;4.13;;
79130;SDS011;70394;45.194;9.142;2023-07-29T07:25:21;10.07;;;4.13;;
79130;SDS011;70394;45.194;9.142;2023-07-29T07:27:47;10.50;;;4.72;;
79130;SDS011;70394;45.194;9.142;2023-07-29T07:30:13;5.70;;;3.78;;
79130;SDS011;70394;45.194;9.142;2023-07-29T07:32:38;5.18;;;3.70;;
79130;SDS011;70394;45.194;9.142;2023-07-29T07:35:04;7.45;;;4.03;;
79130;SDS011;70394;45.194;9.142;2023-07-29T07:37:30;7.47;;;3.90;;
79130;SDS011;70394;45.194;9.142;2023-07-29T07:39:55;7.07;;;3.90;;
79130;SDS011;70394;45.194;9.142;2023-07-29T07:42:21;6.68;;;3.90;;
79130;SDS011;70394;45.194;9.142;2023-07-29T07:44:46;8.18;;;3.70;;
79130;SDS011;70394;45.194;9.142;2023-07-29T07:47:11;8.15;;;3.78;;
79130;SDS011;70394;45.194;9.142;2023-07-29T07:49:37;5.72;;;3.53;;
79130;SDS011;70394;45.194;9.142;2023-07-29T07:52:02;4.93;;;3.65;;
79130;SDS011;70394;45.194;9.142;2023-07-29T07:54:27;5.88;;;3.55;;
79130;SDS011;70394;45.194;9.142;2023-07-29T07:56:53;7.93;;;3.40;;
79130;SDS011;70394;45.194;9.142;2023-07-29T07:59:19;7.45;;;4.03;;
79130;SDS011;70394;45.194;9.142;2023-07-29T08:01:44;8.40;;;4.28;;
79130;SDS011;70394;45.194;9.142;2023-07-29T08:04:10;7.45;;;4.10;;
79130;SDS011;70394;45.194;9.142;2023-07-29T08:06:35;8.55;;;4.82;;
79130;SDS011;70394;45.194;9.142;2023-07-29T08:09:00;6.93;;;4.35;;
79130;SDS011;70394;45.194;9.142;2023-07-29T08:11:26;8.48;;;4.35;;
79130;SDS011;70394;45.194;9.142;2023-07-29T08:13:51;7.32;;;3.90;;
79130;SDS011;70394;45.194;9.142;2023-07-29T08:16:17;5.35;;;3.42;;
79130;SDS011;70394;45.194;9.142;2023-07-29T08:18:42;7.18;;;3.85;;
79130;SDS011;70394;45.194;9.142;2023-07-29T08:21:08;6.82;;;3.60;;
79130;SDS011;70394;45.194;9.142;2023-07-29T08:23:34;8.32;;;4.00;;
79130;SDS011;70394;45.194;9.142;2023-07-29T08:26:01;5.63;;;3.72;;
79130;SDS011;70394;45.194;9.142;2023-07-29T08:28:30;7.00;;;3.88;;
79130;SDS011;70394;45.194;9.142;2023-07-29T08:30:59;6.85;;;3.90;;
79130;SDS011;70394;45.194;9.142;2023-07-29T08:33:25;7.13;;;3.97;;
79130;SDS011;70394;45.194;9.142;2023-07-29T08:35:51;6.32;;;3.70;;
79130;SDS011;70394;45.194;9.142;2023-07-29T08:38:16;7.55;;;3.60;;
79130;SDS011;70394;45.194;9.142;2023-07-29T08:40:43;6.45;;;3.75;;
79130;SDS011;70394;45.194;9.142;2023-07-29T08:43:13;7.07;;;3.85;;
79130;SDS011;70394;45.194;9.142;2023-07-29T08:45:41;7.80;;;3.95;;
79130;SDS011;70394;45.194;9.142;2023-07-29T08:48:09;5.07;;;3.90;;
79130;SDS011;70394;45.194;9.142;2023-07-29T08:50:36;7.85;;;4.18;;
79130;SDS011;70394;45.194;9.142;2023-07-29T08:53:03;7.03;;;3.80;;
79130;SDS011;70394;45.194;9.142;2023-07-29T08:55:30;7.35;;;3.83;;
79130;SDS011;70394;45.194;9.142;2023-07-29T08:57:57;5.65;;;3.70;;
79130;SDS011;70394;45.194;9.142;2023-07-29T09:00:23;4.28;;;3.00;;
79130;SDS011;70394;45.194;9.142;2023-07-29T09:02:50;6.80;;;3.80;;
79130;SDS011;70394;45.194;9.142;2023-07-29T09:05:16;6.20;;;3.65;;
79130;SDS011;70394;45.194;9.142;2023-07-29T09:07:41;9.13;;;3.60;;
79130;SDS011;70394;45.194;9.142;2023-07-29T09:10:09;7.38;;;4.55;;
79130;SDS011;70394;45.194;9.142;2023-07-29T09:12:35;6.93;;;3.83;;
79130;SDS011;70394;45.194;9.142;2023-07-29T09:15:01;5.55;;;4.00;;
79130;SDS011;70394;45.194;9.142;2023-07-29T09:17:26;8.15;;;4.00;;
79130;SDS011;70394;45.194;9.142;2023-07-29T09:19:56;6.65;;;3.55;;
79130;SDS011;70394;45.194;9.142;2023-07-29T09:22:22;6.68;;;4.00;;
79130;SDS011;70394;45.194;9.142;2023-07-29T09:24:47;7.38;;;4.22;;
79130;SDS011;70394;45.194;9.142;2023-07-29T09:27:28;6.32;;;3.90;;
79130;SDS011;70394;45.194;9.142;2023-07-29T09:29:57;7.75;;;4.00;;
79130;SDS011;70394;45.194;9.142;2023-07-29T09:32:23;7.13;;;3.70;;
79130;SDS011;70394;45.194;9.142;2023-07-29T09:34:49;7.93;;;4.07;;
79130;SDS011;70394;45.194;9.142;2023-07-29T09:37:21;6.35;;;3.97;;
79130;SDS011;70394;45.194;9.142;2023-07-29T09:39:49;5.72;;;3.38;;
79130;SDS011;70394;45.194;9.142;2023-07-29T09:42:19;5.63;;;3.50;;
79130;SDS011;70394;45.194;9.142;2023-07-29T09:44:46;7.47;;;3.63;;
79130;SDS011;70394;45.194;9.142;2023-07-29T09:47:20;6.40;;;3.80;;
79130;SDS011;70394;45.194;9.142;2023-07-29T09:49:49;6.68;;;3.70;;
79130;SDS011;70394;45.194;9.142;2023-07-29T09:52:16;6.70;;;4.30;;
79130;SDS011;70394;45.194;9.142;2023-07-29T09:54:44;6.28;;;3.72;;
79130;SDS011;70394;45.194;9.142;2023-07-29T09:57:11;7.32;;;4.07;;
79130;SDS011;70394;45.194;9.142;2023-07-29T09:59:38;5.65;;;3.78;;
79130;SDS011;70394;45.194;9.142;2023-07-29T10:02:04;6.75;;;3.97;;
79130;SDS011;70394;45.194;9.142;2023-07-29T10:04:29;13.93;;;4.30;;
79130;SDS011;70394;45.194;9.142;2023-07-29T10:06:56;8.25;;;4.15;;
79130;SDS011;70394;45.194;9.142;2023-07-29T10:09:22;5.70;;;4.00;;
79130;SDS011;70394;45.194;9.142;2023-07-29T10:11:48;7.07;;;4.03;;
79130;SDS011;70394;45.194;9.142;2023-07-29T10:14:15;6.13;;;3.45;;
79130;SDS011;70394;45.194;9.142;2023-07-29T10:16:41;8.70;;;3.83;;
79130;SDS011;70394;45.194;9.142;2023-07-29T10:19:10;5.53;;;3.45;;
79130;SDS011;70394;45.194;9.142;2023-07-29T10:21:38;7.70;;;3.97;;
79130;SDS011;70394;45.194;9.142;2023-07-29T10:24:04;6.47;;;3.88;;
79130;SDS011;70394;45.194;9.142;2023-07-29T10:26:34;6.05;;;3.90;;
79130;SDS011;70394;45.194;9.142;2023-07-29T10:29:03;6.10;;;4.53;;
79130;SDS011;70394;45.194;9.142;2023-07-29T10:31:33;5.70;;;3.80;;
79130;SDS011;70394;45.194;9.142;2023-07-29T10:34:00;5.35;;;3.42;;
79130;SDS011;70394;45.194;9.142;2023-07-29T10:36:25;7.13;;;4.15;;
79130;SDS011;70394;45.194;9.142;2023-07-29T10:38:51;8.45;;;4.40;;
79130;SDS011;70394;45.194;9.142;2023-07-29T10:41:17;6.20;;;4.05;;
79130;SDS011;70394;45.194;9.142;2023-07-29T10:43:42;6.78;;;4.32;;
79130;SDS011;70394;45.194;9.142;2023-07-29T10:46:17;7.35;;;3.97;;
79130;SDS011;70394;45.194;9.142;2023-07-29T10:53:55;7.97;;;4.93;;
79130;SDS011;70394;45.194;9.142;2023-07-29T10:56:24;6.97;;;4.10;;
79130;SDS011;70394;45.194;9.142;2023-07-29T10:58:51;7.22;;;4.30;;
79130;SDS011;70394;45.194;9.142;2023-07-29T11:01:29;6.15;;;4.30;;
79130;SDS011;70394;45.194;9.142;2023-07-29T11:04:01;9.23;;;4.80;;
79130;SDS011;70394;45.194;9.142;2023-07-29T11:07:18;8.00;;;4.30;;
79130;SDS011;70394;45.194;9.142;2023-07-29T11:17:40;7.10;;;4.03;;
79130;SDS011;70394;45.194;9.142;2023-07-29T11:20:08;6.80;;;3.95;;
79130;SDS011;70394;45.194;9.142;2023-07-29T11:22:35;6.32;;;4.15;;
79130;SDS011;70394;45.194;9.142;2023-07-29T11:25:01;9.90;;;4.55;;
79130;SDS011;70394;45.194;9.142;2023-07-29T11:27:26;5.82;;;3.88;;
79130;SDS011;70394;45.194;9.142;2023-07-29T11:29:58;6.75;;;4.10;;
79130;SDS011;70394;45.194;9.142;2023-07-29T11:32:25;7.20;;;4.05;;
79130;SDS011;70394;45.194;9.142;2023-07-29T11:34:51;6.60;;;4.30;;
79130;SDS011;70394;45.194;9.142;2023-07-29T11:37:17;8.68;;;3.88;;
79130;SDS011;70394;45.194;9.142;2023-07-29T11:39:43;6.53;;;3.90;;
79130;SDS011;70394;45.194;9.142;2023-07-29T11:42:12;7.90;;;4.03;;
79130;SDS011;70394;45.194;9.142;2023-07-29T11:44:39;7.00;;;3.90;;
79130;SDS011;70394;45.194;9.142;2023-07-29T11:47:08;6.47;;;3.92;;
79130;SDS011;70394;45.194;9.142;2023-07-29T11:49:35;6.32;;;4.30;;
79130;SDS011;70394;45.194;9.142;2023-07-29T11:52:01;8.10;;;4.20;;
79130;SDS011;70394;45.194;9.142;2023-07-29T11:54:28;6.57;;;3.80;;
79130;SDS011;70394;45.194;9.142;2023-07-29T11:56:54;5.60;;;3.92;;
79130;SDS011;70394;45.194;9.142;2023-07-29T11:59:20;5.07;;;3.95;;
79130;SDS011;70394;45.194;9.142;2023-07-29T12:01:45;6.10;;;4.00;;
79130;SDS011;70394;45.194;9.142;2023-07-29T12:04:11;6.20;;;4.10;;
79130;SDS011;70394;45.194;9.142;2023-07-29T12:06:38;5.93;;;3.97;;
79130;SDS011;70394;45.194;9.142;2023-07-29T12:09:04;6.55;;;4.07;;
79130;SDS011;70394;45.194;9.142;2023-07-29T12:11:30;6.43;;;4.15;;
79130;SDS011;70394;45.194;9.142;2023-07-29T12:13:55;6.07;;;4.43;;
79130;SDS011;70394;45.194;9.142;2023-07-29T12:16:21;5.10;;;3.92;;
79130;SDS011;70394;45.194;9.142;2023-07-29T12:18:46;6.03;;;4.13;;
79130;SDS011;70394;45.194;9.142;2023-07-29T12:21:13;5.80;;;4.25;;
79130;SDS011;70394;45.194;9.142;2023-07-29T12:23:39;6.78;;;4.53;;
79130;SDS011;70394;45.194;9.142;2023-07-29T12:26:05;6.40;;;4.30;;
79130;SDS011;70394;45.194;9.142;2023-07-29T12:28:30;5.40;;;4.18;;
79130;SDS011;70394;45.194;9.142;2023-07-29T12:30:56;6.15;;;4.22;;
79130;SDS011;70394;45.194;9.142;2023-07-29T12:33:31;7.05;;;4.00;;
79130;SDS011;70394;45.194;9.142;2023-07-29T12:35:58;6.53;;;4.45;;
79130;SDS011;70394;45.194;9.142;2023-07-29T12:38:25;6.68;;;4.47;;
79130;SDS011;70394;45.194;9.142;2023-07-29T12:40:51;7.32;;;4.13;;
79130;SDS011;70394;45.194;9.142;2023-07-29T12:43:17;7.32;;;4.38;;
79130;SDS011;70394;45.194;9.142;2023-07-29T12:45:42;5.75;;;3.97;;
79130;SDS011;70394;45.194;9.142;2023-07-29T12:48:08;7.30;;;4.28;;
79130;SDS011;70394;45.194;9.142;2023-07-29T12:50:34;7.40;;;4.20;;
79130;SDS011;70394;45.194;9.142;2023-07-29T12:52:59;7.07;;;4.35;;
79130;SDS011;70394;45.194;9.142;2023-07-29T12:55:25;6.15;;;4.18;;
79130;SDS011;70394;45.194;9.142;2023-07-29T12:57:50;6.45;;;4.18;;
79130;SDS011;70394;45.194;9.142;2023-07-29T13:00:16;6.20;;;4.20;;
79130;SDS011;70394;45.194;9.142;2023-07-29T13:02:41;6.88;;;4.30;;
79130;SDS011;70394;45.194;9.142;2023-07-29T13:05:09;7.03;;;4.20;;
79130;SDS011;70394;45.194;9.142;2023-07-29T13:07:36;5.50;;;4.00;;
79130;SDS011;70394;45.194;9.142;2023-07-29T13:10:02;5.43;;;4.00;;
79130;SDS011;70394;45.194;9.142;2023-07-29T13:12:28;7.25;;;4.18;;
79130;SDS011;70394;45.194;9.142;2023-07-29T13:14:54;7.38;;;4.75;;
79130;SDS011;70394;45.194;9.142;2023-07-29T13:17:21;16.13;;;4.35;;
79130;SDS011;70394;45.194;9.142;2023-07-29T13:19:47;6.00;;;4.05;;
79130;SDS011;70394;45.194;9.142;2023-07-29T13:22:12;6.20;;;3.85;;
79130;SDS011;70394;45.194;9.142;2023-07-29T13:24:37;8.02;;;4.47;;
79130;SDS011;70394;45.194;9.142;2023-07-29T13:27:03;5.97;;;4.57;;
79130;SDS011;70394;45.194;9.142;2023-07-29T13:29:28;5.60;;;4.35;;
79130;SDS011;70394;45.194;9.142;2023-07-29T13:31:54;6.05;;;4.00;;
79130;SDS011;70394;45.194;9.142;2023-07-29T13:34:19;5.55;;;4.28;;
79130;SDS011;70394;45.194;9.142;2023-07-29T13:36:44;6.32;;;4.05;;
79130;SDS011;70394;45.194;9.142;2023-07-29T13:39:10;8.43;;;4.82;;
79130;SDS011;70394;45.194;9.142;2023-07-29T13:41:35;6.72;;;4.63;;
79130;SDS011;70394;45.194;9.142;2023-07-29T13:44:00;8.25;;;4.30;;
79130;SDS011;70394;45.194;9.142;2023-07-29T13:46:26;6.63;;;4.32;;
79130;SDS011;70394;45.194;9.142;2023-07-29T13:48:51;7.72;;;4.90;;
79130;SDS011;70394;45.194;9.142;2023-07-29T13:51:16;6.28;;;4.40;;
79130;SDS011;70394;45.194;9.142;2023-07-29T13:53:42;6.07;;;4.53;;
79130;SDS011;70394;45.194;9.142;2023-07-29T13:56:07;8.10;;;4.45;;
79130;SDS011;70394;45.194;9.142;2023-07-29T13:58:33;6.70;;;4.00;;
79130;SDS011;70394;45.194;9.142;2023-07-29T14:00:58;7.03;;;4.53;;
79130;SDS011;70394;45.194;9.142;2023-07-29T14:03:23;6.80;;;4.57;;
79130;SDS011;70394;45.194;9.142;2023-07-29T14:05:49;7.28;;;4.45;;
79130;SDS011;70394;45.194;9.142;2023-07-29T14:08:14;6.50;;;4.40;;
79130;SDS011;70394;45.194;9.142;2023-07-29T14:10:39;6.18;;;3.80;;
79130;SDS011;70394;45.194;9.142;2023-07-29T14:13:05;7.03;;;4.70;;
79130;SDS011;70394;45.194;9.142;2023-07-29T14:15:30;7.35;;;4.55;;
79130;SDS011;70394;45.194;9.142;2023-07-29T14:17:57;7.15;;;4.63;;
79130;SDS011;70394;45.194;9.142;2023-07-29T14:20:23;7.30;;;5.30;;
79130;SDS011;70394;45.194;9.142;2023-07-29T14:22:48;6.18;;;4.40;;
79130;SDS011;70394;45.194;9.142;2023-07-29T14:25:14;7.95;;;5.15;;
79130;SDS011;70394;45.194;9.142;2023-07-29T14:27:40;8.55;;;4.80;;
79130;SDS011;70394;45.194;9.142;2023-07-29T14:30:05;6.88;;;4.75;;
79130;SDS011;70394;45.194;9.142;2023-07-29T14:32:31;7.03;;;5.10;;
79130;SDS011;70394;45.194;9.142;2023-07-29T14:34:57;6.15;;;4.68;;
79130;SDS011;70394;45.194;9.142;2023-07-29T14:37:22;5.60;;;4.40;;
79130;SDS011;70394;45.194;9.142;2023-07-29T14:39:48;6.82;;;4.53;;
79130;SDS011;70394;45.194;9.142;2023-07-29T14:42:13;6.85;;;4.70;;
79130;SDS011;70394;45.194;9.142;2023-07-29T14:44:40;8.32;;;4.85;;
79130;SDS011;70394;45.194;9.142;2023-07-29T14:47:07;5.22;;;4.07;;
79130;SDS011;70394;45.194;9.142;2023-07-29T14:49:33;7.05;;;4.63;;
79130;SDS011;70394;45.194;9.142;2023-07-29T14:51:58;8.48;;;4.50;;
79130;SDS011;70394;45.194;9.142;2023-07-29T14:54:24;7.68;;;4.95;;
79130;SDS011;70394;45.194;9.142;2023-07-29T14:56:49;7.95;;;5.03;;
79130;SDS011;70394;45.194;9.142;2023-07-29T14:59:15;6.63;;;4.97;;
79130;SDS011;70394;45.194;9.142;2023-07-29T15:01:40;6.10;;;4.40;;